Estacion de Cartama, Spain
Current Conditions -  °F | °C
As of 6:00 PM on Saturday 25 Oct 2014 (Local Time) from LEMG Reporting Station
Clear Clear  
Wind Chill: 73°   Ceiling: Unl
Heat Index: 73°   Visibility: 6mi
Dew Point: 54°   Wind: 3mph
Humidity: 50%   Direction: 130°SE
Pressure: 30.06"   Gusts: NA
Location:  36.73°N, 4.62°W
Report Text: LEMG 251600Z 13003KT 080V170 CAVOK 23/12 Q1018 NOSIG
Loading
Personal Weather Stations






























Interactive Weather Map
Tropical Storm Tracking
New forecast layout! Learn more

10-Day Weather Forecast

Advertisements
Track Severe Weather on mobile